Aviation Digital Data Service (ADDS)

Output produced by METARs form (1313 UTC 07 July 2015)
found at http://aviationweather.gov/adds/metars/
 
KBDR 071233Z 0713/0812 10005KT 6SM HZ SCT007 BKN015 
     TEMPO 0713/0714 BKN007 
     FM071600 18010KT 6SM HZ VCSH SCT015 BKN040 
     FM072000 20012KT P6SM BKN050 
     FM080100 21008KT P6SM SCT050 BKN250